Time;durP1;ratioP1;P1;durP2;ratioP2;P2;SDS_P1;SDS_P2;PMS_P1;PMS_P2;Temp;Humidity;BMP_temperature;BMP_pressure;BME280_temperature;BME280_humidity;BME280_pressure;Samples;Min_cycle;Max_cycle;Signal;HPM_P1;HPM_P2
2023/06/08 00:01:52;;;;;;;;;;;;;;;;;;5032917;28;19995;-85
2023/06/08 00:04:18;;;;;;;;;;;;;;;;;;5030214;28;20608;-84
2023/06/08 00:06:44;;;;;;;;;;;;;;;;;;5029354;28;20015;-84
2023/06/08 00:09:10;;;;;;;;;;;;;;;;;;5033779;28;20591;-84
2023/06/08 00:11:36;;;;;;;;;;;;;;;;;;5024777;28;20032;-84
2023/06/08 00:14:02;;;;;;;;;;;;;;;;;;5026041;28;19916;-84
2023/06/08 00:16:28;;;;;;;;;;;;;;;;;;5038207;28;20053;-83
2023/06/08 00:18:56;;;;;;;;;;;;;;;;;;5034741;28;19921;-84
2023/06/08 00:21:22;;;;;;;;;;;;;;;;;;5031066;28;20319;-84
2023/06/08 00:23:48;;;;;;;;;;;;;;;;;;5029101;28;19908;-83
2023/06/08 00:26:14;;;;;;;;;;;13.10;99.90;;;;;;5028423;28;19916;-84
2023/06/08 00:28:40;;;;;;;;;;;;;;;;;;5032729;28;19912;-85
2023/06/08 00:31:06;;;;;;;;;;;;;;;;;;5036798;28;20308;-84
2023/06/08 00:33:34;;;;;;;;;;;;;;;;;;5024080;28;19965;-84
2023/06/08 00:36:00;;;;;;;;;;;;;;;;;;5031880;28;20931;-84
2023/06/08 00:38:26;;;;;;;;;;;;;;;;;;5027130;28;20391;-84
2023/06/08 00:40:53;;;;;;;;;;;;;;;;;;5024425;28;19913;-83
2023/06/08 00:43:19;;;;;;;;;;;;;;;;;;5029250;28;20418;-85
2023/06/08 00:45:45;;;;;;;;;;;;;;;;;;5038675;28;20046;-84
2023/06/08 00:48:11;;;;;;;;;;;;;;;;;;5036854;28;19917;-83
2023/06/08 00:50:37;;;;;;;;;;;;;;;;;;5024766;28;19963;-85
2023/06/08 00:53:03;;;;;;;;;;;;;;;;;;5034153;28;23432;-85
2023/06/08 00:55:33;;;;;;;;;;;13.20;99.90;;;;;;5033698;28;19913;-84
2023/06/08 00:58:00;;;;;;;;;;;12.70;99.90;;;;;;5036017;28;20373;-84
2023/06/08 01:00:27;;;;;;;;;;;;;;;;;;5020495;28;20025;-84
2023/06/08 01:02:53;;;;;;;;;;;;;;;;;;5027438;28;19962;-84
2023/06/08 01:05:19;;;;;;;;;;;;;;;;;;5033496;28;19916;-84
2023/06/08 01:07:48;;;;;;;;;;;;;;;;;;5022134;28;19925;-83
2023/06/08 01:10:14;;;;;;;;;;;;;;;;;;5032353;28;19956;-84
2023/06/08 01:12:51;;;;;;;;;;;12.90;99.90;;;;;;5024893;28;20004;-83
2023/06/08 01:15:17;;;;;;;;;;;;;;;;;;5027815;28;20260;-84
2023/06/08 01:17:45;;;;;;;;;;;12.00;99.90;;;;;;5023236;28;19916;-84
2023/06/08 01:20:12;;;;;;;;;;;;;;;;;;5040834;28;19938;-83
2023/06/08 01:22:38;;;;;;;;;;;;;;;;;;5031037;28;20389;-83
2023/06/08 01:25:04;;;;;;;;;;;;;;;;;;5030414;28;19919;-84
2023/06/08 01:27:36;;;;;;;;;;;;;;;;;;5027248;28;19916;-84
2023/06/08 01:30:02;;;;;;;;;;;;;;;;;;5033413;28;19908;-84
2023/06/08 01:32:28;;;;;;;;;;;;;;;;;;5023374;28;19959;-84
2023/06/08 01:34:54;;;;;;;;;;;;;;;;;;5032644;28;19908;-84
2023/06/08 01:37:20;;;;;;;;;;;;;;;;;;5024117;28;19949;-84
2023/06/08 01:39:49;;;;;;;;;;;;;;;;;;5034270;28;19927;-84
2023/06/08 01:42:15;;;;;;;;;;;;;;;;;;5028107;28;19920;-84
2023/06/08 01:44:41;;;;;;;;;;;;;;;;;;5053063;28;20159;-84
2023/06/08 01:47:07;;;;;;;;;;;11.80;99.90;;;;;;5038966;28;19916;-85
2023/06/08 01:49:33;;;;;;;;;;;;;;;;;;5037596;28;19955;-84
2023/06/08 01:51:58;;;;;;;;;;;12.70;99.90;;;;;;5033782;28;19923;-83
2023/06/08 01:54:24;;;;;;;;;;;12.50;99.90;;;;;;5032379;28;19917;-84
2023/06/08 01:56:50;;;;;;;;;;;;;;;;;;5030597;28;19948;-84
2023/06/08 01:59:16;;;;;;;;;;;;;;;;;;5028639;28;20009;-85
2023/06/08 02:01:41;;;;;;;;;;;;;;;;;;5030679;28;20392;-84
2023/06/08 02:04:07;;;;;;;;;;;;;;;;;;5033463;28;20042;-84
2023/06/08 02:06:33;;;;;;;;;;;;;;;;;;5051567;28;19908;-84
2023/06/08 02:09:00;;;;;;;;;;;;;;;;;;5036694;28;20475;-84
2023/06/08 02:11:26;;;;;;;;;;;;;;;;;;5041599;28;19908;-84
2023/06/08 02:13:52;;;;;;;;;;;;;;;;;;5032507;28;23651;-83
2023/06/08 02:16:22;;;;;;;;;;;;;;;;;;5030033;28;20007;-85
2023/06/08 02:18:50;;;;;;;;;;;;;;;;;;5034934;28;19913;-85
2023/06/08 02:21:15;;;;;;;;;;;;;;;;;;5029567;28;19920;-84
2023/06/08 02:23:41;;;;;;;;;;;;;;;;;;5027899;28;19916;-85
2023/06/08 02:26:07;;;;;;;;;;;;;;;;;;5031358;28;19917;-84
2023/06/08 02:28:33;;;;;;;;;;;;;;;;;;5034104;28;19934;-84
2023/06/08 02:31:00;;;;;;;;;;;;;;;;;;5039102;28;19913;-84
2023/06/08 02:33:26;;;;;;;;;;;;;;;;;;5022458;28;19921;-84
2023/06/08 02:35:51;;;;;;;;;;;;;;;;;;5037560;28;20384;-84
2023/06/08 02:38:17;;;;;;;;;;;;;;;;;;5021718;28;20059;-84
2023/06/08 02:40:43;;;;;;;;;;;;;;;;;;5036876;28;19917;-83
2023/06/08 02:43:09;;;;;;;;;;;;;;;;;;5033593;28;19951;-84
2023/06/08 02:45:35;;;;;;;;;;;;;;;;;;5022897;28;19917;-84
2023/06/08 02:48:01;;;;;;;;;;;;;;;;;;5038061;28;19917;-84
2023/06/08 02:50:26;;;;;;;;;;;11.50;99.90;;;;;;5038253;28;20369;-84
2023/06/08 02:52:52;;;;;;;;;;;;;;;;;;5044471;28;19919;-84
2023/06/08 02:55:18;;;;;;;;;;;;;;;;;;5033911;28;20579;-83
2023/06/08 02:57:48;;;;;;;;;;;;;;;;;;5021982;28;19931;-84
2023/06/08 03:00:14;;;;;;;;;;;;;;;;;;5024632;28;19920;-84
2023/06/08 03:02:41;;;;;;;;;;;;;;;;;;5035379;28;19917;-84
2023/06/08 03:05:07;;;;;;;;;;;;;;;;;;5042631;28;20469;-84
2023/06/08 03:07:33;;;;;;;;;;;11.30;99.90;;;;;;5036893;28;20056;-84
2023/06/08 03:09:59;;;;;;;;;;;;;;;;;;5023531;28;20401;-84
2023/06/08 03:12:25;;;;;;;;;;;;;;;;;;5045093;28;19995;-85
2023/06/08 03:14:50;;;;;;;;;;;;;;;;;;5030536;28;19932;-84
2023/06/08 03:17:20;;;;;;;;;;;;;;;;;;5035471;28;19917;-84
2023/06/08 03:19:45;;;;;;;;;;;;;;;;;;5032227;28;19990;-84
2023/06/08 03:22:11;;;;;;;;;;;;;;;;;;5035444;28;19909;-84
2023/06/08 03:24:37;;;;;;;;;;;;;;;;;;5024909;28;19913;-84
2023/06/08 03:27:03;;;;;;;;;;;;;;;;;;5032611;28;19916;-84
2023/06/08 03:29:29;;;;;;;;;;;;;;;;;;5030924;28;19925;-84
2023/06/08 03:31:55;;;;;;;;;;;;;;;;;;5035858;28;20011;-84
2023/06/08 03:34:23;;;;;;;;;;;;;;;;;;5040781;28;20003;-84
2023/06/08 03:36:49;;;;;;;;;;;;;;;;;;5034722;28;19915;-84
2023/06/08 03:39:15;;;;;;;;;;;;;;;;;;5035047;28;20285;-84
2023/06/08 03:41:41;;;;;;;;;;;;;;;;;;5029962;28;19951;-84
2023/06/08 03:44:06;;;;;;;;;;;;;;;;;;5031153;28;19920;-83
2023/06/08 03:46:32;;;;;;;;;;;;;;;;;;5035133;28;19970;-84
2023/06/08 03:48:58;;;;;;;;;;;;;;;;;;5035171;28;20383;-83
2023/06/08 03:51:25;;;;;;;;;;;;;;;;;;5032648;28;19909;-83
2023/06/08 03:53:51;;;;;;;;;;;;;;;;;;5036816;28;19909;-84
2023/06/08 03:56:17;;;;;;;;;;;;;;;;;;5040340;28;19909;-84
2023/06/08 03:58:44;;;;;;;;;;;;;;;;;;5034980;28;20387;-83
2023/06/08 04:01:10;;;;;;;;;;;;;;;;;;5025825;28;19949;-84
2023/06/08 04:03:36;;;;;;;;;;;;;;;;;;5023382;28;20058;-84
2023/06/08 04:06:02;;;;;;;;;;;;;;;;;;5006473;28;21309;-84
2023/06/08 04:08:31;;;;;;;;;;;;;;;;;;4996452;28;19974;-83
2023/06/08 04:10:57;;;;;;;;;;;;;;;;;;5021214;28;19916;-84
2023/06/08 04:13:23;;;;;;;;;;;;;;;;;;5008773;28;21885;-84
2023/06/08 04:15:49;;;;;;;;;;;;;;;;;;5001306;28;19917;-84
2023/06/08 04:18:15;;;;;;;;;;;;;;;;;;5012842;28;20063;-84
2023/06/08 04:20:41;;;;;;;;;;;;;;;;;;5003038;28;19917;-84
2023/06/08 04:23:08;;;;;;;;;;;;;;;;;;4998921;28;19916;-84
2023/06/08 04:25:34;;;;;;;;;;;;;;;;;;4999048;28;19917;-84
2023/06/08 04:28:00;;;;;;;;;;;;;;;;;;5001021;28;20626;-83
2023/06/08 04:30:26;;;;;;;;;;;;;;;;;;4995567;28;19924;-83
2023/06/08 04:32:52;;;;;;;;;;;;;;;;;;5015451;28;20039;-84
2023/06/08 04:35:18;;;;;;;;;;;;;;;;;;5020490;28;20427;-84
2023/06/08 04:37:44;;;;;;;;;;;;;;;;;;5012813;28;19948;-85
2023/06/08 04:40:10;;;;;;;;;;;;;;;;;;5025506;28;19998;-84
2023/06/08 04:42:39;;;;;;;;;;;;;;;;;;5011509;28;20986;-84
2023/06/08 04:45:05;;;;;;;;;;;;;;;;;;5010701;28;19916;-84
2023/06/08 04:47:31;;;;;;;;;;;;;;;;;;5012264;28;19908;-84
2023/06/08 04:49:57;;;;;;;;;;;;;;;;;;5005557;28;19926;-84
2023/06/08 04:52:23;;;;;;;;;;;;;;;;;;5012431;28;20476;-84
2023/06/08 04:54:52;;;;;;;;;;;;;;;;;;5016003;28;20394;-84
2023/06/08 04:57:19;;;;;;;;;;;;;;;;;;5011385;28;20021;-84
2023/06/08 04:59:45;;;;;;;;;;;;;;;;;;5025449;28;20356;-85
2023/06/08 05:02:11;;;;;;;;;;;;;;;;;;5002637;28;23847;-83
2023/06/08 05:04:37;;;;;;;;;;;;;;;;;;5012165;28;20015;-83
2023/06/08 05:07:04;;;;;;;;;;;;;;;;;;5019967;28;19999;-83
2023/06/08 05:09:31;;;;;;;;;;;15.80;99.90;;;;;;5010898;28;20567;-84
2023/06/08 05:11:57;;;;;;;;;;;;;;;;;;5009489;28;19920;-83
2023/06/08 05:14:23;;;;;;;;;;;15.10;99.90;;;;;;5007375;28;19917;-83
2023/06/08 05:16:49;;;;;;;;;;;;;;;;;;5009868;28;20705;-84
2023/06/08 05:19:15;;;;;;;;;;;;;;;;;;5013632;28;19971;-84
2023/06/08 05:21:41;;;;;;;;;;;;;;;;;;5014085;28;20391;-84
2023/06/08 05:24:07;;;;;;;;;;;;;;;;;;5013578;28;20720;-84
2023/06/08 05:26:33;;;;;;;;;;;;;;;;;;5011169;28;19985;-85
2023/06/08 05:28:59;;;;;;;;;;;;;;;;;;5016558;28;20296;-83
2023/06/08 05:31:26;;;;;;;;;;;;;;;;;;5014221;28;20888;-84
2023/06/08 05:33:52;;;;;;;;;;;;;;;;;;5005371;28;19912;-84
2023/06/08 05:36:18;;;;;;;;;;;;;;;;;;5010111;28;19916;-84
2023/06/08 05:38:44;;;;;;;;;;;;;;;;;;5012535;28;20167;-85
2023/06/08 05:41:10;;;;;;;;;;;;;;;;;;5043053;28;20380;-83
2023/06/08 05:43:36;;;;;;;;;;;;;;;;;;5023472;28;20288;-84
2023/06/08 05:46:01;;;;;;;;;;;;;;;;;;5017341;28;19964;-83
2023/06/08 05:48:27;;;;;;;;;;;16.90;99.90;;;;;;5024718;28;19920;-84
2023/06/08 05:50:52;;;;;;;;;;;17.60;99.90;;;;;;5033238;28;19916;-84
2023/06/08 05:53:18;;;;;;;;;;;;;;;;;;5026880;28;20525;-84
2023/06/08 05:55:44;;;;;;;;;;;;;;;;;;5028339;28;19923;-84
2023/06/08 05:58:10;;;;;;;;;;;;;;;;;;4962850;28;19988;-85
2023/06/08 06:00:36;;;;;;;;;;;20.30;99.90;;;;;;4977061;28;21099;-85
2023/06/08 06:03:02;;;;;;;;;;;;;;;;;;4966778;28;19920;-85
2023/06/08 06:05:29;;;;;;;;;;;22.20;99.90;;;;;;4966162;28;19914;-85
2023/06/08 06:07:54;;;;;;;;;;;;;;;;;;4962599;28;20523;-85
2023/06/08 06:10:20;;;;;;;;;;;24.80;99.90;;;;;;4955001;28;19949;-85
2023/06/08 06:12:46;;;;;;;;;;;25.30;99.70;;;;;;4949639;28;20389;-85
2023/06/08 06:15:11;;;;;;;;;;;25.70;98.10;;;;;;4966787;28;19921;-85
2023/06/08 06:17:37;;;;;;;;;;;26.80;97.50;;;;;;4948592;28;19916;-85
2023/06/08 06:20:05;;;;;;;;;;;26.70;93.30;;;;;;4961161;28;19928;-86
2023/06/08 06:22:31;;;;;;;;;;;27.60;93.70;;;;;;4965572;28;19917;-85
2023/06/08 06:24:56;;;;;;;;;;;29.50;91.10;;;;;;4954423;28;19920;-85
2023/06/08 06:27:22;;;;;;;;;;;30.60;83.20;;;;;;4943784;28;19961;-85
2023/06/08 06:29:48;;;;;;;;;;;32.50;78.50;;;;;;4956551;28;20117;-85
2023/06/08 06:32:13;;;;;;;;;;;33.90;71.70;;;;;;4963109;28;19924;-84
2023/06/08 06:34:39;;;;;;;;;;;34.10;71.50;;;;;;4963164;28;19913;-85
2023/06/08 06:37:05;;;;;;;;;;;35.50;63.00;;;;;;4957551;28;20328;-85
2023/06/08 06:39:30;;;;;;;;;;;34.90;60.90;;;;;;4981945;28;20916;-85
2023/06/08 06:41:56;;;;;;;;;;;35.30;58.70;;;;;;4971582;28;19906;-85
2023/06/08 06:44:21;;;;;;;;;;;37.00;55.70;;;;;;4990815;28;20014;-86
2023/06/08 06:46:47;;;;;;;;;;;37.10;53.40;;;;;;5013255;28;19904;-84
2023/06/08 06:49:12;;;;;;;;;;;36.90;52.70;;;;;;4978122;28;19921;-85
2023/06/08 06:51:40;;;;;;;;;;;36.90;51.80;;;;;;4964397;28;20592;-86
2023/06/08 06:54:05;;;;;;;;;;;37.10;50.70;;;;;;4951784;28;19940;-86
2023/06/08 06:56:31;;;;;;;;;;;36.70;52.10;;;;;;4971399;28;19959;-84
2023/06/08 06:58:57;;;;;;;;;;;36.30;53.70;;;;;;4948530;28;20412;-85
2023/06/08 07:01:23;;;;;;;;;;;36.10;55.10;;;;;;4976263;28;19923;-85
2023/06/08 07:03:49;;;;;;;;;;;35.30;53.00;;;;;;4949909;28;20562;-85
2023/06/08 07:06:15;;;;;;;;;;;35.70;53.30;;;;;;4952108;28;19922;-85
2023/06/08 07:08:41;;;;;;;;;;;35.90;54.70;;;;;;4945409;28;19932;-84
2023/06/08 07:11:07;;;;;;;;;;;35.40;52.90;;;;;;4949824;28;20000;-85
2023/06/08 07:13:33;;;;;;;;;;;34.50;53.50;;;;;;4946807;28;20548;-85
2023/06/08 07:15:58;;;;;;;;;;;35.20;53.80;;;;;;4952921;28;19925;-84
2023/06/08 07:18:24;;;;;;;;;;;;;;;;;;4962919;28;19913;-85
2023/06/08 07:20:50;;;;;;;;;;;;;;;;;;4955160;28;20476;-84
2023/06/08 07:23:15;;;;;;;;;;;34.50;56.40;;;;;;4960405;28;20000;-85
2023/06/08 07:25:41;;;;;;;;;;;34.50;58.50;;;;;;4950365;28;20305;-85
2023/06/08 07:28:07;;;;;;;;;;;33.60;55.50;;;;;;4952212;28;19917;-84
2023/06/08 07:30:33;;;;;;;;;;;34.40;56.90;;;;;;4956938;28;20297;-84
2023/06/08 07:32:58;;;;;;;;;;;33.20;59.80;;;;;;4950712;28;22163;-85
2023/06/08 07:35:24;;;;;;;;;;;34.20;56.10;;;;;;4965091;28;20301;-85
2023/06/08 07:37:51;;;;;;;;;;;34.80;55.70;;;;;;4946607;28;19918;-84
2023/06/08 07:40:18;;;;;;;;;;;;;;;;;;4947585;28;19913;-84
2023/06/08 07:42:44;;;;;;;;;;;;;;;;;;4952796;28;19979;-85
2023/06/08 07:45:11;;;;;;;;;;;34.80;55.40;;;;;;4959538;28;19968;-85
2023/06/08 07:47:37;;;;;;;;;;;;;;;;;;4950588;28;19909;-85
2023/06/08 07:50:03;;;;;;;;;;;;;;;;;;4937711;28;21393;-85
2023/06/08 07:52:28;;;;;;;;;;;;;;;;;;4963023;28;19913;-86
2023/06/08 07:54:54;;;;;;;;;;;34.40;53.60;;;;;;4947710;28;19917;-85
2023/06/08 07:57:20;;;;;;;;;;;;;;;;;;4964850;28;19914;-85
2023/06/08 07:59:45;;;;;;;;;;;33.40;53.10;;;;;;4947870;28;19976;-85
2023/06/08 08:02:11;;;;;;;;;;;34.00;56.00;;;;;;4954588;28;20358;-86
2023/06/08 08:04:37;;;;;;;;;;;;;;;;;;4959097;28;19945;-86
2023/06/08 08:07:02;;;;;;;;;;;33.60;56.90;;;;;;4962309;28;19921;-85
2023/06/08 08:09:28;;;;;;;;;;;31.50;58.30;;;;;;4948590;28;19917;-85
2023/06/08 08:11:54;;;;;;;;;;;;;;;;;;4950694;28;19914;-86
2023/06/08 08:14:19;;;;;;;;;;;;;;;;;;4962238;28;19922;-84
2023/06/08 08:16:45;;;;;;;;;;;;;;;;;;4967665;28;19914;-84
2023/06/08 08:19:11;;;;;;;;;;;;;;;;;;4952936;28;20017;-85
2023/06/08 08:21:37;;;;;;;;;;;;;;;;;;4967416;28;19910;-83
2023/06/08 08:24:03;;;;;;;;;;;30.70;64.50;;;;;;4986293;28;20276;-83
2023/06/08 08:26:29;;;;;;;;;;;;;;;;;;4974417;28;19913;-83
2023/06/08 08:28:55;;;;;;;;;;;30.80;61.30;;;;;;4977450;28;20270;-83
2023/06/08 08:31:21;;;;;;;;;;;30.70;60.20;;;;;;4976986;28;20000;-84
2023/06/08 08:33:46;;;;;;;;;;;;;;;;;;4978245;28;20008;-85
2023/06/08 08:36:12;;;;;;;;;;;;;;;;;;4981710;28;20534;-84
2023/06/08 08:38:39;;;;;;;;;;;;;;;;;;4984419;28;19925;-84
2023/06/08 08:41:05;;;;;;;;;;;;;;;;;;4979163;28;20541;-82
2023/06/08 08:43:31;;;;;;;;;;;;;;;;;;4996377;28;19913;-84
2023/06/08 08:45:57;;;;;;;;;;;35.30;52.10;;;;;;4980287;28;20247;-82
2023/06/08 08:48:24;;;;;;;;;;;36.00;50.20;;;;;;4946605;28;19921;-83
2023/06/08 08:50:58;;;;;;;;;;;36.60;49.80;;;;;;4967461;28;19913;-83
2023/06/08 08:53:30;;;;;;;;;;;;;;;;;;4956046;28;19949;-82
2023/06/08 08:55:57;;;;;;;;;;;37.40;48.40;;;;;;4973082;28;19957;-82
2023/06/08 08:58:22;;;;;;;;;;;37.50;46.00;;;;;;4955024;28;20036;-83
2023/06/08 09:00:51;;;;;;;;;;;37.90;44.30;;;;;;4944353;28;19917;-83
2023/06/08 09:03:17;;;;;;;;;;;38.50;44.30;;;;;;4957437;28;20028;-82
2023/06/08 09:05:43;;;;;;;;;;;38.10;44.20;;;;;;4943366;28;19920;-84
2023/06/08 09:08:09;;;;;;;;;;;38.60;44.00;;;;;;4960324;28;19921;-83
2023/06/08 09:10:35;;;;;;;;;;;38.90;45.00;;;;;;4961186;28;20350;-83
2023/06/08 09:13:01;;;;;;;;;;;38.90;44.30;;;;;;4946448;28;20059;-83
2023/06/08 09:15:28;;;;;;;;;;;39.70;43.70;;;;;;4944314;28;19917;-83
2023/06/08 09:17:57;;;;;;;;;;;40.50;42.60;;;;;;4969646;28;19910;-83
2023/06/08 09:20:32;;;;;;;;;;;39.20;44.00;;;;;;4954494;28;19918;-82
2023/06/08 09:22:58;;;;;;;;;;;39.50;44.80;;;;;;4966597;28;20028;-82
2023/06/08 09:25:36;;;;;;;;;;;39.20;46.20;;;;;;4982569;28;19997;-81
2023/06/08 09:28:02;;;;;;;;;;;;;;;;;;4975812;28;19905;-82
2023/06/08 09:30:27;;;;;;;;;;;35.50;48.80;;;;;;4998437;28;19918;-81
2023/06/08 09:32:53;;;;;;;;;;;34.30;48.20;;;;;;4979821;28;19918;-84
2023/06/08 09:35:19;;;;;;;;;;;;;;;;;;4990542;28;19913;-81
2023/06/08 09:37:46;;;;;;;;;;;;;;;;;;5013844;28;19905;-81
2023/06/08 09:40:12;;;;;;;;;;;;;;;;;;5023186;28;19926;-81
2023/06/08 09:42:40;;;;;;;;;;;;;;;;;;5006479;28;19918;-82
2023/06/08 09:45:11;;;;;;;;;;;30.40;56.80;;;;;;4997890;28;19918;-82
2023/06/08 09:47:36;;;;;;;;;;;30.30;56.00;;;;;;4981086;28;19917;-83
2023/06/08 09:50:03;;;;;;;;;;;;;;;;;;4971329;28;19960;-84
2023/06/08 09:52:29;;;;;;;;;;;;;;;;;;4990803;28;19927;-83
2023/06/08 09:54:54;;;;;;;;;;;;;;;;;;4986381;28;19925;-84
2023/06/08 09:57:21;;;;;;;;;;;;;;;;;;4955483;28;19917;-86
2023/06/08 09:59:47;;;;;;;;;;;;;;;;;;4977954;28;19949;-84
2023/06/08 10:02:13;;;;;;;;;;;;;;;;;;4959506;28;20004;-85
2023/06/08 10:04:39;;;;;;;;;;;;;;;;;;4961220;28;23851;-84
2023/06/08 10:07:06;;;;;;;;;;;;;;;;;;4940280;28;20570;-84
2023/06/08 10:09:34;;;;;;;;;;;28.70;65.70;;;;;;4952073;28;20333;-84
2023/06/08 10:12:00;;;;;;;;;;;;;;;;;;4957090;28;19914;-83
2023/06/08 10:14:26;;;;;;;;;;;;;;;;;;4946311;28;19924;-82
2023/06/08 10:16:52;;;;;;;;;;;;;;;;;;4960831;28;20475;-83
2023/06/08 10:19:18;;;;;;;;;;;;;;;;;;4943073;28;19972;-83
2023/06/08 10:21:44;;;;;;;;;;;;;;;;;;4965501;28;20374;-85
2023/06/08 10:24:10;;;;;;;;;;;;;;;;;;4963338;28;20018;-84
2023/06/08 10:26:36;;;;;;;;;;;;;;;;;;4954414;28;20326;-84
2023/06/08 10:29:02;;;;;;;;;;;;;;;;;;4946895;28;19925;-83
2023/06/08 10:31:28;;;;;;;;;;;;;;;;;;4952064;28;20654;-83
2023/06/08 10:33:53;;;;;;;;;;;25.20;75.10;;;;;;4948375;28;20689;-84
2023/06/08 10:36:21;;;;;;;;;;;;;;;;;;4957059;28;20333;-84
2023/06/08 10:38:47;;;;;;;;;;;;;;;;;;4949389;28;19925;-83
2023/06/08 10:41:13;;;;;;;;;;;;;;;;;;4951699;28;19963;-84
2023/06/08 10:43:39;;;;;;;;;;;;;;;;;;4959888;28;19918;-83
2023/06/08 10:46:04;;;;;;;;;;;25.60;74.60;;;;;;4953764;28;20866;-84
2023/06/08 10:48:30;;;;;;;;;;;;;;;;;;4945725;28;19921;-85
2023/06/08 10:50:57;;;;;;;;;;;25.50;71.10;;;;;;4972716;28;20484;-86
2023/06/08 10:53:23;;;;;;;;;;;;;;;;;;4950859;28;20393;-84
2023/06/08 10:55:49;;;;;;;;;;;;;;;;;;4953841;28;20020;-89
2023/06/08 10:58:15;;;;;;;;;;;;;;;;;;4966192;28;19913;-88
2023/06/08 11:00:44;;;;;;;;;;;;;;;;;;4958485;28;20455;-86
2023/06/08 11:03:11;;;;;;;;;;;25.10;73.00;;;;;;4964458;28;19917;-86
2023/06/08 11:05:37;;;;;;;;;;;;;;;;;;4954227;28;23177;-87
2023/06/08 11:08:03;;;;;;;;;;;;;;;;;;4940627;28;19917;-87
2023/06/08 11:10:32;;;;;;;;;;;;;;;;;;4947570;28;20188;-83
2023/06/08 11:12:58;;;;;;;;;;;;;;;;;;4961871;28;19917;-85
2023/06/08 11:15:24;;;;;;;;;;;;;;;;;;4962973;28;21090;-84
2023/06/08 11:17:53;;;;;;;;;;;24.50;85.90;;;;;;4980075;28;19910;-84
2023/06/08 11:20:19;;;;;;;;;;;;;;;;;;4974717;28;21150;-83
2023/06/08 11:22:45;;;;;;;;;;;;;;;;;;4962613;28;24271;-84
2023/06/08 11:25:11;;;;;;;;;;;;;;;;;;4942000;28;20510;-84
2023/06/08 11:27:37;;;;;;;;;;;;;;;;;;4943696;28;19917;-83
2023/06/08 11:30:03;;;;;;;;;;;23.40;99.90;;;;;;4949003;28;21579;-84
2023/06/08 11:32:29;;;;;;;;;;;;;;;;;;4944098;28;22117;-84
2023/06/08 11:34:55;;;;;;;;;;;;;;;;;;4950674;28;19923;-84
2023/06/08 11:37:21;;;;;;;;;;;;;;;;;;4957898;28;21579;-84
2023/06/08 11:39:47;;;;;;;;;;;;;;;;;;4953495;28;19926;-85
2023/06/08 11:42:13;;;;;;;;;;;;;;;;;;4942657;28;19920;-84
2023/06/08 11:44:39;;;;;;;;;;;;;;;;;;4942514;28;21407;-85
2023/06/08 11:47:05;;;;;;;;;;;;;;;;;;4966415;28;19917;-84
2023/06/08 11:49:30;;;;;;;;;;;;;;;;;;4947016;28;20003;-85
2023/06/08 11:51:56;;;;;;;;;;;;;;;;;;4963955;28;19914;-84
2023/06/08 11:54:22;;;;;;;;;;;;;;;;;;4990834;28;20369;-84
2023/06/08 11:56:48;;;;;;;;;;;;;;;;;;4985662;28;19934;-83
2023/06/08 11:59:14;;;;;;;;;;;;;;;;;;4981613;28;20398;-83
2023/06/08 12:01:41;;;;;;;;;;;;;;;;;;4999387;28;20060;-85
2023/06/08 12:04:08;;;;;;;;;;;;;;;;;;5008166;28;19932;-85
2023/06/08 12:06:35;;;;;;;;;;;;;;;;;;5001320;28;19910;-84
2023/06/08 12:09:05;;;;;;;;;;;;;;;;;;4995220;28;20365;-85
2023/06/08 12:11:31;;;;;;;;;;;;;;;;;;4975040;28;19956;-86
2023/06/08 12:13:57;;;;;;;;;;;22.70;99.90;;;;;;4986447;28;19910;-84
2023/06/08 12:16:22;;;;;;;;;;;21.60;99.90;;;;;;4993402;28;19988;-85
2023/06/08 12:18:48;;;;;;;;;;;22.10;99.90;;;;;;4980325;28;20350;-85
2023/06/08 12:21:15;;;;;;;;;;;23.20;99.90;;;;;;4974088;28;20049;-85
2023/06/08 12:23:41;;;;;;;;;;;;;;;;;;4989029;28;20000;-85
2023/06/08 12:26:06;;;;;;;;;;;;;;;;;;4988292;28;19996;-85
2023/06/08 12:28:32;;;;;;;;;;;23.80;99.90;;;;;;4984279;28;20046;-85
2023/06/08 12:31:00;;;;;;;;;;;24.10;99.90;;;;;;5003081;28;19917;-85
2023/06/08 12:33:26;;;;;;;;;;;24.70;99.90;;;;;;4991708;28;21646;-85
2023/06/08 12:35:53;;;;;;;;;;;25.10;99.90;;;;;;4982550;28;19913;-86
2023/06/08 12:38:20;;;;;;;;;;;;;;;;;;4981949;28;20040;-85
2023/06/08 12:40:51;;;;;;;;;;;26.60;99.90;;;;;;4999806;28;20289;-86
2023/06/08 12:43:20;;;;;;;;;;;26.30;99.90;;;;;;5006921;28;19921;-85
2023/06/08 12:45:46;;;;;;;;;;;26.10;99.90;;;;;;4985632;28;19924;-86
2023/06/08 12:48:13;;;;;;;;;;;;;;;;;;4982802;28;19918;-85
2023/06/08 12:50:39;;;;;;;;;;;;;;;;;;4993022;28;19917;-84
2023/06/08 12:53:05;;;;;;;;;;;;;;;;;;4980666;28;19925;-85
2023/06/08 12:55:31;;;;;;;;;;;;;;;;;;4999192;28;20451;-86
2023/06/08 12:57:56;;;;;;;;;;;26.30;99.90;;;;;;4997869;28;19975;-85
2023/06/08 13:00:22;;;;;;;;;;;27.20;99.90;;;;;;4998182;28;20396;-85
2023/06/08 13:02:48;;;;;;;;;;;;;;;;;;4988770;28;20491;-84
2023/06/08 13:05:14;;;;;;;;;;;;;;;;;;4974018;28;19913;-87
2023/06/08 13:07:40;;;;;;;;;;;;;;;;;;4982894;28;20637;-85
2023/06/08 13:10:06;;;;;;;;;;;;;;;;;;4957858;28;20048;-86
2023/06/08 13:12:32;;;;;;;;;;;24.60;99.90;;;;;;4980132;28;21486;-85
2023/06/08 13:14:57;;;;;;;;;;;24.70;99.00;;;;;;4962836;28;19918;-84
2023/06/08 13:17:26;;;;;;;;;;;;;;;;;;4956148;28;19909;-85
2023/06/08 13:19:52;;;;;;;;;;;;;;;;;;4966098;28;19925;-84
2023/06/08 13:22:18;;;;;;;;;;;;;;;;;;4952424;28;19910;-84
2023/06/08 13:24:44;;;;;;;;;;;;;;;;;;4975237;28;19914;-84
2023/06/08 13:27:09;;;;;;;;;;;23.70;99.90;;;;;;4991151;28;19920;-84
2023/06/08 13:29:35;;;;;;;;;;;;;;;;;;4978727;28;20384;-85
2023/06/08 13:32:01;;;;;;;;;;;;;;;;;;4979254;28;19909;-83
2023/06/08 13:34:27;;;;;;;;;;;;;;;;;;4998937;28;20401;-84
2023/06/08 13:36:53;;;;;;;;;;;22.90;99.60;;;;;;4987769;28;19936;-84
2023/06/08 13:39:19;;;;;;;;;;;;;;;;;;4979696;28;20373;-85
2023/06/08 13:41:46;;;;;;;;;;;;;;;;;;4981450;28;20289;-84
2023/06/08 13:44:14;;;;;;;;;;;;;;;;;;4952147;28;19913;-84
2023/06/08 13:46:39;;;;;;;;;;;;;;;;;;4961727;28;19918;-85
2023/06/08 13:49:05;;;;;;;;;;;22.10;99.90;;;;;;4950625;28;19924;-84
2023/06/08 13:51:32;;;;;;;;;;;;;;;;;;4939099;28;20004;-84
2023/06/08 13:53:58;;;;;;;;;;;;;;;;;;4970365;28;19976;-84
2023/06/08 13:56:24;;;;;;;;;;;;;;;;;;4957902;28;20365;-85
2023/06/08 13:58:57;;;;;;;;;;;21.40;99.90;;;;;;4945605;28;19983;-83
2023/06/08 14:01:23;;;;;;;;;;;;;;;;;;4963911;28;20357;-84
2023/06/08 14:03:49;;;;;;;;;;;;;;;;;;4950746;28;19909;-86
2023/06/08 14:06:14;;;;;;;;;;;21.50;99.90;;;;;;4975263;28;19921;-86
2023/06/08 14:08:41;;;;;;;;;;;;;;;;;;4978537;28;19918;-85
2023/06/08 14:11:07;;;;;;;;;;;;;;;;;;4986464;28;19918;-86
2023/06/08 14:13:35;;;;;;;;;;;;;;;;;;4983488;28;19948;-85
2023/06/08 14:16:12;;;;;;;;;;;21.70;99.90;;;;;;4997264;28;19916;-84
2023/06/08 14:18:40;;;;;;;;;;;21.50;99.90;;;;;;4985072;28;19910;-86
2023/06/08 14:21:07;;;;;;;;;;;;;;;;;;5000530;28;20270;-86
2023/06/08 14:23:33;;;;;;;;;;;;;;;;;;4968968;28;20446;-86
2023/06/08 14:26:01;;;;;;;;;;;22.60;99.90;;;;;;4983680;28;20455;-85
2023/06/08 14:28:27;;;;;;;;;;;21.50;99.90;;;;;;4988773;28;19909;-85
2023/06/08 14:30:53;;;;;;;;;;;;;;;;;;4997124;28;20261;-85
2023/06/08 14:33:19;;;;;;;;;;;;;;;;;;4971741;28;19910;-85
2023/06/08 14:35:45;;;;;;;;;;;22.90;99.90;;;;;;4975544;28;20448;-85
2023/06/08 14:38:11;;;;;;;;;;;;;;;;;;4989626;28;19910;-85
2023/06/08 14:40:37;;;;;;;;;;;23.20;99.90;;;;;;4985978;28;19944;-86
2023/06/08 14:43:04;;;;;;;;;;;;;;;;;;4999604;28;19920;-85
2023/06/08 14:45:30;;;;;;;;;;;;;;;;;;4988061;28;19913;-85
2023/06/08 14:47:56;;;;;;;;;;;;;;;;;;4981439;28;20028;-85
2023/06/08 14:50:22;;;;;;;;;;;;;;;;;;4983834;28;19996;-85
2023/06/08 14:52:48;;;;;;;;;;;;;;;;;;5000954;28;19918;-85
2023/06/08 14:55:14;;;;;;;;;;;;;;;;;;4980371;28;19913;-85
2023/06/08 14:57:40;;;;;;;;;;;;;;;;;;4983341;28;20000;-85
2023/06/08 15:00:06;;;;;;;;;;;21.60;99.90;;;;;;5002189;28;20096;-84
2023/06/08 15:02:32;;;;;;;;;;;;;;;;;;4998391;28;19914;-83
2023/06/08 15:04:58;;;;;;;;;;;;;;;;;;4985387;28;19968;-84
2023/06/08 15:07:24;;;;;;;;;;;21.50;99.90;;;;;;4987500;28;19997;-84
2023/06/08 15:09:50;;;;;;;;;;;22.70;99.90;;;;;;4979262;28;19914;-85
2023/06/08 15:12:15;;;;;;;;;;;;;;;;;;4966909;28;19920;-84
2023/06/08 15:14:41;;;;;;;;;;;21.70;99.90;;;;;;4963179;28;19924;-85
2023/06/08 15:17:07;;;;;;;;;;;;;;;;;;4961582;28;20084;-85
2023/06/08 15:19:33;;;;;;;;;;;;;;;;;;4964846;28;19917;-85
2023/06/08 15:22:06;;;;;;;;;;;22.10;99.90;;;;;;4966363;28;20183;-83
2023/06/08 15:24:32;;;;;;;;;;;;;;;;;;4982938;28;19952;-85
2023/06/08 15:26:58;;;;;;;;;;;;;;;;;;4957808;28;19925;-85
2023/06/08 15:29:24;;;;;;;;;;;;;;;;;;4956168;28;20392;-84
2023/06/08 15:31:56;;;;;;;;;;;;;;;;;;4956931;28;19914;-84
2023/06/08 15:34:39;;;;;;;;;;;;;;;;;;4964956;28;19964;-84
2023/06/08 15:37:05;;;;;;;;;;;;;;;;;;4980940;28;20012;-84
2023/06/08 15:39:31;;;;;;;;;;;;;;;;;;4957603;28;20092;-85
2023/06/08 15:41:57;;;;;;;;;;;;;;;;;;4955112;28;20608;-85
2023/06/08 15:44:23;;;;;;;;;;;;;;;;;;4955014;28;21328;-84
2023/06/08 15:46:48;;;;;;;;;;;;;;;;;;4961295;28;19909;-83
2023/06/08 15:49:32;;;;;;;;;;;;;;;;;;4965120;28;19968;-83